createdAt,value
2017-12-17T00:01:22.332Z,23.90
2017-12-17T00:03:50.087Z,23.38
2017-12-17T00:06:17.917Z,24.42
2017-12-17T00:08:45.697Z,22.45
2017-12-17T00:11:13.452Z,23.65
2017-12-17T00:13:41.273Z,21.42
2017-12-17T00:16:09.032Z,21.70
2017-12-17T00:18:36.801Z,23.98
2017-12-17T00:21:04.623Z,22.05
2017-12-17T00:23:32.394Z,22.30
2017-12-17T00:26:00.149Z,20.45
2017-12-17T00:28:27.966Z,25.50
2017-12-17T00:30:56.482Z,22.15
2017-12-17T00:33:24.235Z,23.45
2017-12-17T00:35:52.065Z,22.70
2017-12-17T00:38:20.607Z,25.15
2017-12-17T00:40:48.362Z,25.80
2017-12-17T00:43:16.164Z,25.90
2017-12-17T00:45:44.218Z,25.88
2017-12-17T00:48:11.974Z,27.08
2017-12-17T00:50:39.802Z,23.27
2017-12-17T00:53:07.554Z,24.80
2017-12-17T00:55:35.303Z,26.48
2017-12-17T00:58:03.118Z,24.90
2017-12-17T01:00:30.859Z,23.87
2017-12-17T01:02:58.602Z,25.25
2017-12-17T01:05:26.422Z,22.48
2017-12-17T01:07:54.172Z,23.42
2017-12-17T01:10:21.914Z,22.52
2017-12-17T01:12:49.790Z,23.05
2017-12-17T01:15:17.556Z,26.48
2017-12-17T01:17:45.302Z,32.10
2017-12-17T01:20:13.123Z,28.62
2017-12-17T01:22:41.645Z,30.25
2017-12-17T01:25:09.385Z,34.47
2017-12-17T01:27:37.380Z,36.58
2017-12-17T01:30:05.139Z,35.28
2017-12-17T01:32:32.883Z,36.38
2017-12-17T01:35:00.711Z,34.95
2017-12-17T01:37:29.230Z,29.65
2017-12-17T01:39:56.974Z,24.75
2017-12-17T01:42:24.824Z,26.35
2017-12-17T01:44:52.597Z,25.83
2017-12-17T01:47:21.225Z,26.75
2017-12-17T01:49:49.062Z,24.67
2017-12-17T01:52:16.837Z,27.45
2017-12-17T01:54:44.602Z,22.90
2017-12-17T01:57:12.420Z,24.12
2017-12-17T01:59:40.216Z,20.98
2017-12-17T02:02:07.962Z,20.30
2017-12-17T02:04:35.805Z,19.12
2017-12-17T02:07:03.581Z,19.98
2017-12-17T02:09:31.350Z,21.27
2017-12-17T02:11:59.179Z,21.05
2017-12-17T02:14:27.721Z,21.85
2017-12-17T02:16:55.500Z,23.85
2017-12-17T02:19:23.344Z,20.25
2017-12-17T02:21:51.116Z,21.37
2017-12-17T02:24:18.887Z,21.95
2017-12-17T02:26:46.715Z,23.25
2017-12-17T02:29:14.499Z,22.45
2017-12-17T02:31:42.299Z,22.27
2017-12-17T02:34:10.918Z,23.45
2017-12-17T02:36:39.460Z,19.15
2017-12-17T02:39:08.022Z,21.05
2017-12-17T02:41:35.870Z,19.37
2017-12-17T02:44:03.637Z,21.45
2017-12-17T02:46:31.415Z,22.42
2017-12-17T02:49:00.038Z,16.70
2017-12-17T02:51:27.809Z,19.30
2017-12-17T02:53:55.575Z,19.40
2017-12-17T02:56:23.407Z,19.48
2017-12-17T02:58:51.175Z,20.42
2017-12-17T03:01:18.957Z,21.52
2017-12-17T03:03:46.785Z,19.10
2017-12-17T03:06:15.427Z,19.90
2017-12-17T03:08:43.238Z,22.20
2017-12-17T03:11:11.067Z,20.73
2017-12-17T03:13:38.841Z,19.95
2017-12-17T03:16:07.393Z,18.83
2017-12-17T03:18:35.462Z,19.02
2017-12-17T03:21:03.237Z,20.88
2017-12-17T03:23:31.033Z,21.33
2017-12-17T03:25:59.642Z,21.40
2017-12-17T03:28:27.419Z,20.15
2017-12-17T03:30:55.200Z,21.15
2017-12-17T03:33:23.030Z,21.55
2017-12-17T03:35:50.794Z,19.05
2017-12-17T03:38:18.557Z,19.35
2017-12-17T03:40:46.404Z,18.27
2017-12-17T03:43:14.174Z,18.52
2017-12-17T03:45:41.947Z,18.20
2017-12-17T03:48:09.804Z,16.67
2017-12-17T03:50:37.569Z,18.73
2017-12-17T03:53:05.348Z,19.73
2017-12-17T03:55:33.190Z,20.85
2017-12-17T03:58:00.976Z,17.55
2017-12-17T04:00:28.749Z,20.65
2017-12-17T04:02:56.582Z,21.00
2017-12-17T04:05:24.350Z,20.17
2017-12-17T04:07:52.130Z,24.05
2017-12-17T04:10:19.966Z,24.05
2017-12-17T04:12:47.776Z,20.62
2017-12-17T04:15:15.553Z,19.95
2017-12-17T04:17:44.155Z,21.15
2017-12-17T04:20:11.927Z,19.60
2017-12-17T04:22:39.699Z,17.05
2017-12-17T04:25:07.541Z,18.65
2017-12-17T04:27:35.321Z,17.83
2017-12-17T04:30:03.095Z,18.42
2017-12-17T04:32:30.926Z,18.73
2017-12-17T04:34:58.697Z,18.45
2017-12-17T04:37:26.448Z,18.65
2017-12-17T04:39:54.316Z,18.15
2017-12-17T04:42:22.097Z,17.87
2017-12-17T04:44:49.922Z,20.37
2017-12-17T04:47:18.513Z,19.90
2017-12-17T04:49:46.294Z,20.12
2017-12-17T04:52:14.071Z,19.85
2017-12-17T04:54:41.925Z,20.65
2017-12-17T04:57:09.717Z,22.50
2017-12-17T04:59:37.479Z,18.05
2017-12-17T05:02:05.307Z,18.48
2017-12-17T05:04:33.086Z,18.65
2017-12-17T05:07:00.859Z,18.33
2017-12-17T05:09:28.690Z,17.87
2017-12-17T05:11:56.476Z,18.30
2017-12-17T05:14:24.262Z,16.83
2017-12-17T05:16:52.101Z,18.55
2017-12-17T05:19:19.885Z,17.17
2017-12-17T05:21:47.655Z,17.17
2017-12-17T05:24:15.491Z,15.82
2017-12-17T05:26:43.298Z,16.48
2017-12-17T05:29:11.869Z,16.35
2017-12-17T05:31:39.750Z,15.50
2017-12-17T05:34:08.290Z,15.65
2017-12-17T05:36:36.839Z,14.32
2017-12-17T05:39:04.685Z,14.98
2017-12-17T05:41:32.503Z,16.12
2017-12-17T05:44:00.271Z,15.80
2017-12-17T05:46:28.105Z,17.12
2017-12-17T05:48:55.887Z,17.87
2017-12-17T05:51:23.664Z,16.37
2017-12-17T05:53:51.490Z,17.50
2017-12-17T05:56:19.266Z,17.45
2017-12-17T05:58:47.054Z,14.25
2017-12-17T06:01:14.897Z,13.85
2017-12-17T06:03:42.675Z,15.05
2017-12-17T06:06:10.451Z,15.15
2017-12-17T06:08:39.066Z,15.40
2017-12-17T06:11:06.858Z,12.75
2017-12-17T06:13:34.636Z,14.98
2017-12-17T06:16:02.562Z,13.77
2017-12-17T06:18:30.333Z,13.45
2017-12-17T06:20:58.093Z,13.00
2017-12-17T06:23:26.186Z,14.57
2017-12-17T06:25:54.725Z,13.35
2017-12-17T06:28:22.566Z,12.80
2017-12-17T06:30:51.168Z,12.95
2017-12-17T06:33:18.936Z,12.23
2017-12-17T06:35:46.713Z,12.63
2017-12-17T06:38:14.556Z,12.60
2017-12-17T06:40:42.339Z,12.32
2017-12-17T06:43:10.109Z,11.40
2017-12-17T06:45:37.943Z,11.55
2017-12-17T06:48:05.719Z,12.90
2017-12-17T06:50:33.489Z,13.38
2017-12-17T06:53:01.580Z,14.80
2017-12-17T06:55:29.350Z,14.10
2017-12-17T06:57:57.122Z,13.23
2017-12-17T07:00:24.950Z,13.77
2017-12-17T07:02:52.725Z,12.85
2017-12-17T07:05:20.489Z,14.05
2017-12-17T07:07:48.318Z,13.90
2017-12-17T07:10:16.123Z,14.48
2017-12-17T07:12:43.886Z,16.23
2017-12-17T07:15:12.495Z,14.93
2017-12-17T07:17:41.043Z,13.85
2017-12-17T07:20:08.809Z,15.90
2017-12-17T07:22:36.872Z,15.90
2017-12-17T07:25:04.646Z,14.00
2017-12-17T07:27:32.432Z,14.85
2017-12-17T07:30:01.031Z,15.13
2017-12-17T07:32:28.814Z,16.62
2017-12-17T07:34:56.590Z,16.98
2017-12-17T07:37:24.425Z,14.40
2017-12-17T07:39:52.213Z,14.35
2017-12-17T07:42:19.979Z,13.02
2017-12-17T07:44:47.808Z,14.05
2017-12-17T07:47:15.569Z,14.38
2017-12-17T07:49:43.342Z,14.52
2017-12-17T07:52:11.349Z,14.55
2017-12-17T07:54:39.135Z,14.68
2017-12-17T07:57:07.680Z,14.30
2017-12-17T07:59:35.517Z,15.38
2017-12-17T08:02:03.298Z,15.15
2017-12-17T08:04:31.072Z,11.02
2017-12-17T08:06:59.134Z,15.18
2017-12-17T08:09:26.905Z,13.52
2017-12-17T08:11:54.679Z,13.18
2017-12-17T08:14:22.532Z,13.20
2017-12-17T08:16:50.308Z,14.07
2017-12-17T08:19:18.093Z,13.38
2017-12-17T08:21:46.697Z,13.80
2017-12-17T08:24:14.490Z,13.60
2017-12-17T08:26:42.274Z,13.32
2017-12-17T08:29:10.322Z,15.38
2017-12-17T08:31:38.106Z,14.20
2017-12-17T08:34:06.640Z,12.45
2017-12-17T08:36:34.484Z,11.55
2017-12-17T08:39:02.472Z,12.23
2017-12-17T08:41:30.243Z,12.82
2017-12-17T08:43:58.179Z,12.90
2017-12-17T08:46:25.960Z,12.00
2017-12-17T08:48:53.809Z,13.30
2017-12-17T08:51:21.702Z,13.62
2017-12-17T08:53:50.936Z,15.05
2017-12-17T08:56:19.497Z,13.95
2017-12-17T08:58:47.348Z,14.90
2017-12-17T09:01:15.118Z,14.32
2017-12-17T09:03:42.892Z,16.60
2017-12-17T09:06:14.054Z,14.87
2017-12-17T09:08:42.607Z,16.25
2017-12-17T09:11:10.382Z,13.43
2017-12-17T09:13:38.233Z,14.38
2017-12-17T09:16:06.139Z,12.52
2017-12-17T09:18:33.994Z,12.57
2017-12-17T09:21:01.839Z,14.00
2017-12-17T09:23:29.603Z,14.60
2017-12-17T09:25:58.162Z,13.77
2017-12-17T09:28:31.980Z,13.57
2017-12-17T09:31:06.442Z,17.45
2017-12-17T09:33:34.292Z,13.30
2017-12-17T09:36:02.083Z,15.20
2017-12-17T09:38:29.856Z,12.68
2017-12-17T09:40:58.458Z,13.30
2017-12-17T09:43:26.230Z,14.98
2017-12-17T09:45:54.003Z,14.52
2017-12-17T09:48:21.838Z,14.18
2017-12-17T09:50:49.613Z,13.07
2017-12-17T09:53:17.389Z,13.75
2017-12-17T09:55:45.994Z,14.20
2017-12-17T09:58:15.258Z,15.23
2017-12-17T10:00:43.039Z,13.52
2017-12-17T10:03:11.663Z,12.90
2017-12-17T10:05:39.430Z,13.55
2017-12-17T10:08:07.260Z,12.37
2017-12-17T10:10:35.115Z,14.02
2017-12-17T10:13:03.794Z,13.73
2017-12-17T10:15:32.335Z,13.95
2017-12-17T10:18:00.149Z,14.38
2017-12-17T10:20:27.948Z,14.55
2017-12-17T10:22:55.772Z,15.13
2017-12-17T10:25:23.702Z,16.48
2017-12-17T10:27:51.766Z,14.70
2017-12-17T10:30:19.601Z,16.58
2017-12-17T10:32:47.485Z,16.20
2017-12-17T10:35:15.270Z,16.40
2017-12-17T10:37:43.294Z,16.52
2017-12-17T10:40:11.238Z,16.17
2017-12-17T10:42:39.054Z,15.43
2017-12-17T10:45:07.026Z,17.42
2017-12-17T10:47:35.642Z,15.93
2017-12-17T10:50:03.761Z,17.52
2017-12-17T10:52:31.576Z,16.85
2017-12-17T10:54:59.719Z,18.33
2017-12-17T10:57:27.565Z,15.40
2017-12-17T10:59:55.324Z,14.63
2017-12-17T11:02:23.201Z,13.93
2017-12-17T11:04:51.029Z,16.00
2017-12-17T11:07:18.824Z,12.75
2017-12-17T11:09:46.695Z,14.50
2017-12-17T11:12:14.563Z,14.27
2017-12-17T11:14:43.578Z,16.58
2017-12-17T11:17:11.473Z,13.52
2017-12-17T11:19:39.318Z,15.48
2017-12-17T11:22:07.141Z,14.93
2017-12-17T11:24:35.907Z,14.00
2017-12-17T11:27:03.823Z,14.25
2017-12-17T11:29:31.666Z,16.10
2017-12-17T11:32:00.372Z,18.87
2017-12-17T11:34:28.181Z,19.55
2017-12-17T11:36:56.048Z,19.08
2017-12-17T11:39:23.911Z,17.33
2017-12-17T11:41:51.798Z,15.40
2017-12-17T11:44:22.688Z,19.62
2017-12-17T11:46:51.610Z,17.45
2017-12-17T11:49:21.086Z,22.67
2017-12-17T11:51:49.427Z,27.87
2017-12-17T11:54:19.606Z,32.78
2017-12-17T11:56:48.623Z,26.98
2017-12-17T11:59:19.276Z,24.42
2017-12-17T12:01:48.351Z,22.33
2017-12-17T12:04:16.204Z,19.08
2017-12-17T12:06:44.141Z,18.92
2017-12-17T12:09:12.051Z,21.15
2017-12-17T12:11:39.947Z,19.50
2017-12-17T12:14:07.880Z,23.33
2017-12-17T12:16:35.799Z,20.73
2017-12-17T12:19:03.658Z,17.60
2017-12-17T12:21:31.662Z,17.55
2017-12-17T12:24:00.270Z,20.30
2017-12-17T12:26:28.154Z,20.98
2017-12-17T12:28:56.135Z,21.92
2017-12-17T12:31:24.079Z,20.27
2017-12-17T12:33:51.964Z,16.58
2017-12-17T12:36:19.867Z,15.77
2017-12-17T12:38:48.455Z,24.33
2017-12-17T12:41:16.369Z,19.52
2017-12-17T12:43:44.273Z,22.75
2017-12-17T12:46:12.889Z,22.50
2017-12-17T12:48:40.807Z,21.98
2017-12-17T12:51:09.604Z,26.70
2017-12-17T12:53:37.501Z,23.45
2017-12-17T12:56:05.342Z,24.27
2017-12-17T12:58:33.295Z,28.25
2017-12-17T13:01:01.965Z,24.10
2017-12-17T13:03:29.969Z,25.62
2017-12-17T13:05:58.726Z,25.83
2017-12-17T13:08:27.413Z,24.17
2017-12-17T13:10:56.050Z,24.12
2017-12-17T13:13:23.976Z,23.77
2017-12-17T13:15:51.920Z,22.25
2017-12-17T13:18:20.708Z,23.52
2017-12-17T13:20:48.903Z,23.15
2017-12-17T13:23:17.135Z,20.10
2017-12-17T13:25:45.298Z,18.20
2017-12-17T13:28:13.642Z,16.08
2017-12-17T13:30:41.780Z,16.27
2017-12-17T13:33:09.827Z,16.08
2017-12-17T13:35:38.704Z,14.52
2017-12-17T13:38:07.451Z,15.10
2017-12-17T13:40:35.220Z,13.18
2017-12-17T13:43:02.989Z,15.18
2017-12-17T13:45:30.718Z,16.83
2017-12-17T13:47:59.193Z,17.02
2017-12-17T13:50:27.736Z,18.02
2017-12-17T13:52:56.216Z,18.90
2017-12-17T13:55:23.954Z,19.77
2017-12-17T13:57:51.724Z,19.42
2017-12-17T14:00:19.444Z,21.77
2017-12-17T14:02:47.932Z,24.70
2017-12-17T14:05:16.472Z,23.20
2017-12-17T14:07:44.180Z,22.98
2017-12-17T14:10:11.909Z,22.60
2017-12-17T14:12:39.673Z,19.95
2017-12-17T14:15:07.374Z,21.87
2017-12-17T14:17:35.080Z,22.62
2017-12-17T14:20:02.844Z,20.05
2017-12-17T14:22:31.221Z,20.60
2017-12-17T14:24:58.954Z,20.05
2017-12-17T14:27:26.741Z,19.40
2017-12-17T14:29:54.467Z,19.85
2017-12-17T14:32:22.197Z,19.45
2017-12-17T14:34:49.965Z,21.83
2017-12-17T14:37:17.677Z,21.40
2017-12-17T14:39:45.392Z,22.37
2017-12-17T14:42:13.173Z,21.00
2017-12-17T14:44:40.900Z,19.00
2017-12-17T14:47:08.621Z,25.12
2017-12-17T14:49:36.406Z,24.45
2017-12-17T14:52:04.900Z,18.73
2017-12-17T14:54:33.385Z,20.98
2017-12-17T14:57:01.160Z,20.33
2017-12-17T14:59:28.872Z,20.52
2017-12-17T15:01:56.583Z,18.77
2017-12-17T15:04:24.353Z,18.90
2017-12-17T15:06:52.076Z,18.65
2017-12-17T15:09:20.590Z,18.37
2017-12-17T15:11:48.362Z,19.10
2017-12-17T15:14:16.090Z,19.48
2017-12-17T15:16:44.583Z,21.45
2017-12-17T15:19:12.360Z,21.95
2017-12-17T15:21:40.073Z,27.60
2017-12-17T15:24:07.775Z,27.67
2017-12-17T15:26:35.714Z,29.12
2017-12-17T15:29:04.195Z,32.95
2017-12-17T15:31:32.676Z,30.75
2017-12-17T15:34:00.454Z,32.25
2017-12-17T15:36:28.168Z,34.08
2017-12-17T15:38:55.858Z,36.30
2017-12-17T15:41:23.653Z,34.50
2017-12-17T15:43:51.377Z,34.72
2017-12-17T15:46:19.861Z,39.65
2017-12-17T15:48:47.660Z,37.08
2017-12-17T15:51:15.440Z,36.45
2017-12-17T15:53:43.556Z,40.60
2017-12-17T15:56:11.385Z,40.80
2017-12-17T15:58:39.077Z,42.50
2017-12-17T16:01:06.796Z,41.45
2017-12-17T16:03:34.567Z,42.40
2017-12-17T16:06:02.284Z,48.25
2017-12-17T16:08:29.999Z,47.13
2017-12-17T16:10:57.774Z,49.30
2017-12-17T16:13:26.268Z,72.03
2017-12-17T16:15:53.989Z,74.47
2017-12-17T16:18:21.775Z,72.85
2017-12-17T16:20:50.261Z,72.68
2017-12-17T16:23:18.745Z,78.35
2017-12-17T16:25:46.512Z,68.62
2017-12-17T16:28:14.235Z,69.90
2017-12-17T16:30:41.933Z,68.20
2017-12-17T16:33:09.715Z,74.82
2017-12-17T16:35:37.444Z,72.57
2017-12-17T16:38:05.896Z,58.60
2017-12-17T16:40:33.637Z,51.53
2017-12-17T16:43:01.321Z,52.58
2017-12-17T16:45:29.017Z,53.95
2017-12-17T16:47:56.763Z,55.28
2017-12-17T16:50:25.214Z,56.92
2017-12-17T16:52:52.897Z,57.67
2017-12-17T16:55:21.413Z,56.50
2017-12-17T16:57:49.099Z,57.58
2017-12-17T17:00:19.737Z,53.70
2017-12-17T17:02:47.486Z,39.78
2017-12-17T17:05:15.196Z,33.17
2017-12-17T17:07:42.900Z,28.27
2017-12-17T17:10:10.662Z,20.95
2017-12-17T17:12:38.375Z,20.23
2017-12-17T17:15:06.825Z,20.70
2017-12-17T17:17:34.573Z,19.80
2017-12-17T17:20:02.277Z,21.37
2017-12-17T17:22:29.977Z,18.73
2017-12-17T17:24:57.722Z,20.55
2017-12-17T17:27:25.408Z,18.05
2017-12-17T17:29:53.105Z,16.23
2017-12-17T17:32:21.958Z,12.82
2017-12-17T17:34:50.701Z,15.38
2017-12-17T17:37:18.403Z,13.93
2017-12-17T17:39:46.157Z,13.32
2017-12-17T17:42:13.870Z,11.73
2017-12-17T17:44:42.373Z,12.27
2017-12-17T17:47:10.121Z,10.38
2017-12-17T17:49:37.840Z,9.95
2017-12-17T17:52:05.534Z,10.25
2017-12-17T17:54:34.055Z,22.60
2017-12-17T17:57:01.741Z,14.20
2017-12-17T17:59:29.434Z,19.15
2017-12-17T18:01:57.182Z,9.55
2017-12-17T18:04:25.724Z,8.88
2017-12-17T18:06:53.405Z,8.25
2017-12-17T18:09:21.935Z,7.82
2017-12-17T18:11:49.612Z,8.50
2017-12-17T18:14:18.063Z,6.68
2017-12-17T18:16:46.253Z,8.10
2017-12-17T18:19:13.958Z,8.77
2017-12-17T18:21:41.646Z,7.93
2017-12-17T18:24:09.398Z,9.98
2017-12-17T18:26:37.905Z,9.65
2017-12-17T18:29:05.613Z,10.40
2017-12-17T18:31:33.361Z,10.50
2017-12-17T18:34:01.041Z,9.55
2017-12-17T18:36:28.725Z,10.60
2017-12-17T18:38:56.477Z,11.20
2017-12-17T18:41:24.965Z,10.05
2017-12-17T18:43:52.667Z,9.65
2017-12-17T18:46:20.420Z,12.15
2017-12-17T18:48:48.511Z,11.25
2017-12-17T18:51:16.199Z,8.95
2017-12-17T18:53:44.715Z,10.52
2017-12-17T18:56:12.394Z,13.10
2017-12-17T18:58:40.077Z,12.00
2017-12-17T19:01:07.841Z,10.52
2017-12-17T19:03:35.529Z,11.23
2017-12-17T19:06:04.017Z,12.70
2017-12-17T19:08:31.760Z,14.55
2017-12-17T19:11:00.211Z,13.68
2017-12-17T19:13:27.926Z,12.32
2017-12-17T19:15:55.689Z,13.45
2017-12-17T19:18:23.378Z,13.98
2017-12-17T19:20:51.062Z,13.52
2017-12-17T19:23:18.801Z,11.75
2017-12-17T19:25:46.486Z,12.95
2017-12-17T19:28:14.231Z,11.00
2017-12-17T19:30:42.059Z,14.45
2017-12-17T19:33:09.838Z,14.80
2017-12-17T19:35:38.364Z,14.80
2017-12-17T19:38:06.938Z,17.12
2017-12-17T19:40:35.460Z,16.62
2017-12-17T19:43:03.234Z,17.98
2017-12-17T19:45:31.045Z,17.62
2017-12-17T19:47:59.561Z,17.33
2017-12-17T19:50:27.321Z,20.73
2017-12-17T19:52:55.126Z,17.90
2017-12-17T19:55:22.895Z,17.30
2017-12-17T19:57:50.655Z,20.00
2017-12-17T20:00:18.490Z,18.87
2017-12-17T20:02:46.335Z,19.15
2017-12-17T20:05:14.101Z,18.37
2017-12-17T20:07:42.351Z,17.83
2017-12-17T20:10:10.159Z,17.25
2017-12-17T20:12:37.915Z,22.27
2017-12-17T20:15:05.737Z,19.00
2017-12-17T20:17:34.246Z,17.95
2017-12-17T20:20:01.999Z,17.85
2017-12-17T20:22:29.822Z,17.05
2017-12-17T20:24:58.375Z,15.80
2017-12-17T20:27:26.141Z,15.30
2017-12-17T20:29:53.960Z,16.65
2017-12-17T20:32:21.742Z,15.90
2017-12-17T20:34:49.499Z,15.43
2017-12-17T20:37:17.319Z,14.27
2017-12-17T20:39:45.844Z,14.43
2017-12-17T20:42:13.594Z,15.13
2017-12-17T20:44:41.437Z,15.65
2017-12-17T20:47:09.194Z,16.20
2017-12-17T20:49:37.790Z,17.27
2017-12-17T20:52:05.601Z,18.30
2017-12-17T20:54:33.382Z,16.20
2017-12-17T20:57:01.915Z,17.00
2017-12-17T20:59:29.723Z,19.30
2017-12-17T21:01:57.476Z,16.85
2017-12-17T21:04:25.232Z,19.17
2017-12-17T21:06:53.049Z,18.60
2017-12-17T21:09:20.826Z,17.23
2017-12-17T21:11:48.622Z,18.15
2017-12-17T21:14:16.434Z,18.08
2017-12-17T21:16:44.198Z,19.55
2017-12-17T21:19:11.950Z,20.65
2017-12-17T21:21:39.757Z,18.75
2017-12-17T21:24:07.591Z,17.50
2017-12-17T21:26:35.343Z,20.75
2017-12-17T21:29:03.425Z,21.30
2017-12-17T21:31:31.268Z,21.05
2017-12-17T21:33:59.046Z,20.12
2017-12-17T21:36:26.967Z,20.27
2017-12-17T21:38:54.732Z,19.98
2017-12-17T21:41:23.248Z,17.87
2017-12-17T21:43:51.055Z,17.80
2017-12-17T21:46:18.801Z,20.27
2017-12-17T21:48:46.616Z,22.20
2017-12-17T21:51:14.444Z,21.33
2017-12-17T21:53:42.220Z,21.15
2017-12-17T21:56:09.990Z,22.13
2017-12-17T21:58:38.614Z,22.58
2017-12-17T22:01:06.378Z,23.65
2017-12-17T22:03:34.126Z,21.67
2017-12-17T22:06:01.946Z,23.05
2017-12-17T22:08:29.751Z,21.23
2017-12-17T22:10:57.497Z,25.30
2017-12-17T22:13:25.330Z,23.17
2017-12-17T22:15:53.077Z,24.30
2017-12-17T22:18:20.834Z,21.95
2017-12-17T22:20:48.666Z,23.60
2017-12-17T22:23:16.415Z,22.45
2017-12-17T22:25:44.170Z,23.12
2017-12-17T22:28:11.980Z,21.08
2017-12-17T22:30:39.743Z,21.83
2017-12-17T22:33:08.270Z,23.20
2017-12-17T22:35:36.090Z,22.67
2017-12-17T22:38:03.874Z,20.92
2017-12-17T22:40:31.634Z,22.05
2017-12-17T22:42:59.453Z,22.00
2017-12-17T22:45:27.205Z,20.08
2017-12-17T22:47:54.957Z,22.27
2017-12-17T22:50:22.797Z,20.95
2017-12-17T22:52:51.321Z,20.17
2017-12-17T22:55:19.082Z,20.50
2017-12-17T22:57:46.882Z,21.23
2017-12-17T23:00:14.639Z,21.20
2017-12-17T23:02:42.394Z,21.27
2017-12-17T23:05:10.213Z,19.95
2017-12-17T23:07:37.970Z,22.30
2017-12-17T23:10:05.736Z,22.65
2017-12-17T23:12:33.547Z,21.20
2017-12-17T23:15:01.312Z,24.25
2017-12-17T23:17:29.065Z,23.42
2017-12-17T23:19:56.896Z,22.55
2017-12-17T23:22:24.642Z,23.27
2017-12-17T23:24:52.390Z,22.70
2017-12-17T23:27:20.972Z,24.15
2017-12-17T23:29:48.742Z,24.12
2017-12-17T23:32:16.514Z,22.48
2017-12-17T23:34:44.379Z,25.12
2017-12-17T23:37:12.155Z,26.25
2017-12-17T23:39:39.910Z,24.50
2017-12-17T23:42:07.751Z,25.42
2017-12-17T23:44:35.535Z,25.00
2017-12-17T23:47:03.309Z,24.50
2017-12-17T23:49:31.133Z,23.80
2017-12-17T23:51:59.647Z,26.23
2017-12-17T23:54:27.416Z,23.67
2017-12-17T23:56:55.233Z,22.67
2017-12-17T23:59:23.754Z,24.33
